Time;durP1;ratioP1;P1;durP2;ratioP2;P2;SDS_P1;SDS_P2;PMS_P1;PMS_P2;Temp;Humidity;BMP_temperature;BMP_pressure;BME280_temperature;BME280_humidity;BME280_pressure;Samples;Min_cycle;Max_cycle;Signal;HPM_P1;HPM_P2
2020/12/26 00:02:02;;;;;;;5.18;2.13;;;;;;;;;;4824457;29;20477;-75
2020/12/26 00:04:28;;;;;;;6.85;1.80;;;;;;;;;;4824346;29;20585;-76
2020/12/26 00:06:54;;;;;;;8.52;1.90;;;;;;;;;;4824507;29;20030;-74
2020/12/26 00:09:20;;;;;;;4.30;2.28;;;;;;;;;;4824236;29;20118;-74
2020/12/26 00:11:46;;;;;;;3.55;1.58;;;;;;;;;;4824054;29;20042;-73
2020/12/26 00:14:13;;;;;;;3.83;1.85;;;;;;;;;;4824256;29;20038;-76
2020/12/26 00:16:39;;;;;;;5.55;2.13;;;;;;;;;;4824270;29;20069;-71
2020/12/26 00:19:05;;;;;;;10.27;2.90;;;;;;;;;;4807676;29;20383;-78
2020/12/26 00:21:31;;;;;;;5.60;2.33;;;;;;;;;;4807741;29;20033;-75
2020/12/26 00:23:57;;;;;;;5.35;2.20;;;;;;;;;;4823975;29;20030;-70
2020/12/26 00:26:24;;;;;;;6.97;2.50;;;;;;;;;;4807541;29;20492;-74
2020/12/26 00:28:50;;;;;;;6.75;2.30;;;;;;;;;;4824053;29;20058;-71
2020/12/26 00:31:17;;;;;;;5.47;2.10;;;;;;;;;;4807557;29;20030;-73
2020/12/26 00:33:43;;;;;;;6.60;2.33;;;;;;;;;;4807240;29;20046;-75
2020/12/26 00:36:10;;;;;;;3.47;1.73;;;;;;;;;;4824106;29;20135;-74
2020/12/26 00:38:36;;;;;;;8.02;2.13;;;;;;;;;;4823946;29;20030;-72
2020/12/26 00:41:02;;;;;;;4.78;1.75;;;;;;;;;;4807470;29;20160;-76
2020/12/26 00:43:28;;;;;;;6.22;2.78;;;;;;;;;;4809881;29;20047;-76
2020/12/26 00:45:54;;;;;;;6.50;2.58;;;;;;;;;;4810991;29;20430;-77
2020/12/26 00:48:20;;;;;;;7.75;2.75;;;;;;;;;;4810987;29;20034;-71
2020/12/26 00:50:46;;;;;;;4.50;2.30;;;;;;;;;;4810801;29;20050;-70
2020/12/26 00:53:13;;;;;;;4.70;2.33;;;;;;;;;;4827150;29;20050;-75
2020/12/26 00:55:39;;;;;;;5.25;2.72;;;;;;;;;;4827269;29;20030;-74
2020/12/26 00:58:05;;;;;;;5.13;2.08;;;;;;;;;;4826863;29;20129;-74
2020/12/26 01:00:31;;;;;;;5.40;2.25;;;;;;;;;;4827146;29;20486;-78
2020/12/26 01:02:57;;;;;;;3.05;1.75;;;;;;;;;;4810952;29;20125;-70
2020/12/26 01:05:23;;;;;;;4.88;2.00;;;;;;;;;;4810755;29;20042;-78
2020/12/26 01:07:49;;;;;;;3.72;1.90;;;;;;;;;;4810844;29;20030;-72
2020/12/26 01:10:16;;;;;;;4.82;2.17;;;;;;;;;;4810558;29;20062;-75
2020/12/26 01:12:42;;;;;;;4.00;1.60;;;;;;;;;;4826921;29;20460;-78
2020/12/26 01:15:08;;;;;;;3.40;1.90;;;;;;;;;;4810633;29;20036;-76
2020/12/26 01:17:34;;;;;;;4.32;2.08;;;;;;;;;;4810746;29;20476;-71
2020/12/26 01:20:01;;;;;;;8.18;1.67;;;;;;;;;;4810635;29;20034;-76
2020/12/26 01:22:27;;;;;;;4.97;1.98;;;;;;;;;;4826859;29;20373;-71
2020/12/26 01:24:53;;;;;;;6.07;2.20;;;;;;;;;;4827043;29;20034;-79
2020/12/26 01:27:19;;;;;;;4.00;1.45;;;;;;;;;;4826574;29;20061;-72
2020/12/26 01:29:46;;;;;;;7.97;2.15;;;;;;;;;;4826685;29;20445;-77
2020/12/26 01:32:12;;;;;;;5.57;2.17;;;;;;;;;;4826899;29;20037;-79
2020/12/26 01:34:38;;;;;;;4.63;2.10;;;;;;;;;;4809965;29;20038;-74
2020/12/26 01:37:05;;;;;;;5.65;2.15;;;;;;;;;;4826806;29;20038;-77
2020/12/26 01:39:31;;;;;;;5.63;1.70;;;;;;;;;;4810344;29;20545;-79
2020/12/26 01:41:57;;;;;;;5.90;2.53;;;;;;;;;;4810279;29;20113;-79
2020/12/26 01:44:23;;;;;;;3.03;1.70;;;;;;;;;;4810320;29;20489;-77
2020/12/26 01:46:50;;;;;;;9.82;2.38;;;;;;;;;;4826409;29;20034;-80
2020/12/26 01:49:16;;;;;;;4.88;1.90;;;;;;;;;;4826486;29;20046;-73
2020/12/26 01:51:44;;;;;;;5.22;2.08;;;;;;;;;;4810034;29;20046;-77
2020/12/26 01:54:11;;;;;;;4.50;1.88;;;;;;;;;;4809830;29;20480;-76
2020/12/26 01:56:40;;;;;;;6.50;2.63;;;;;;;;;;4826283;29;20031;-75
2020/12/26 01:59:07;;;;;;;6.43;2.67;;;;;;;;;;4826106;29;20158;-71
2020/12/26 02:01:34;;;;;;;7.25;2.83;;;;;;;;;;4826533;29;20427;-76
2020/12/26 02:04:01;;;;;;;8.05;2.67;;;;;;;;;;4825995;29;20091;-71
2020/12/26 02:06:29;;;;;;;12.27;4.05;;;;;;;;;;4826304;29;20384;-78
2020/12/26 02:08:57;;;;;;;14.32;3.63;;;;;;;;;;4809704;29;20033;-80
2020/12/26 02:11:23;;;;;;;5.45;2.20;;;;;;;;;;4809587;29;20501;-75
2020/12/26 02:13:49;;;;;;;4.50;2.08;;;;;;;;;;4825985;29;20046;-75
2020/12/26 02:16:17;;;;;;;6.10;2.30;;;;;;;;;;4826049;29;20030;-80
2020/12/26 02:18:43;;;;;;;7.30;2.97;;;;;;;;;;4809651;29;20058;-78
2020/12/26 02:21:09;;;;;;;7.28;3.13;;;;;;;;;;4825740;29;20035;-79
2020/12/26 02:23:37;;;;;;;5.55;2.75;;;;;;;;;;4809402;29;20058;-75
2020/12/26 02:26:03;;;;;;;12.93;2.70;;;;;;;;;;4809594;29;20034;-77
2020/12/26 02:28:29;;;;;;;5.07;2.42;;;;;;;;;;4825766;29;20034;-70
2020/12/26 02:30:55;;;;;;;9.15;3.20;;;;;;;;;;4825818;29;20031;-78
2020/12/26 02:33:22;;;;;;;4.07;2.13;;;;;;;;;;4809146;29;20133;-78
2020/12/26 02:35:48;;;;;;;6.85;2.85;;;;;;;;;;4809363;29;20034;-71
2020/12/26 02:38:15;;;;;;;6.93;2.42;;;;;;;;;;4809385;29;20030;-76
2020/12/26 02:40:41;;;;;;;11.85;3.17;;;;;;;;;;4825397;29;20034;-75
2020/12/26 02:43:16;;;;;;;9.95;3.05;;;;;;;;;;4825516;29;20026;-72
2020/12/26 02:45:42;;;;;;;12.10;2.92;;;;;;;;;;4809211;29;20400;-75
2020/12/26 02:48:08;;;;;;;8.00;2.95;;;;;;;;;;4825514;29;20465;-78
2020/12/26 02:50:35;;;;;;;13.30;3.63;;;;;;;;;;4808617;29;20074;-74
2020/12/26 02:53:01;;;;;;;6.72;2.63;;;;;;;;;;4825421;29;20070;-69
2020/12/26 02:55:28;;;;;;;4.72;2.45;;;;;;;;;;4825407;29;20030;-70
2020/12/26 02:57:54;;;;;;;8.73;3.47;;;;;;;;;;4825274;29;20030;-74
2020/12/26 03:00:20;;;;;;;8.65;3.08;;;;;;;;;;4825350;29;20389;-75
2020/12/26 03:02:46;;;;;;;9.38;3.00;;;;;;;;;;4808672;29;20027;-72
2020/12/26 03:05:14;;;;;;;6.50;2.88;;;;;;;;;;4824593;29;20042;-78
2020/12/26 03:07:40;;;;;;;6.60;2.35;;;;;;;;;;4825296;29;20115;-73
2020/12/26 03:10:06;;;;;;;5.15;2.38;;;;;;;;;;4825119;29;20038;-75
2020/12/26 03:12:32;;;;;;;6.25;2.47;;;;;;;;;;4808493;29;20027;-77
2020/12/26 03:14:58;;;;;;;7.40;3.22;;;;;;;;;;4825219;29;20083;-77
2020/12/26 03:17:24;;;;;;;7.47;2.70;;;;;;;;;;4808641;29;20490;-75
2020/12/26 03:19:51;;;;;;;6.82;2.35;;;;;;;;;;4824892;29;20035;-78
2020/12/26 03:22:18;;;;;;;9.20;3.78;;;;;;;;;;4825081;29;20030;-70
2020/12/26 03:24:44;;;;;;;11.40;4.00;;;;;;;;;;4808306;29;20096;-78
2020/12/26 03:27:10;;;;;;;5.93;2.58;;;;;;;;;;4808583;29;20030;-75
2020/12/26 03:29:37;;;;;;;10.57;3.00;;;;;;;;;;4808417;29;20036;-72
2020/12/26 03:32:03;;;;;;;7.45;2.97;;;;;;;;;;4824957;29;20026;-76
2020/12/26 03:34:30;;;;;;;4.70;2.15;;;;;;;;;;4808275;29;20046;-76
2020/12/26 03:36:56;;;;;;;8.45;2.97;;;;;;;;;;4824928;29;20430;-75
2020/12/26 03:39:22;;;;;;;7.70;3.30;;;;;;;;;;4808156;29;20045;-78
2020/12/26 03:41:48;;;;;;;4.90;2.60;;;;;;;;;;4824779;29;20453;-68
2020/12/26 03:44:14;;;;;;;6.45;2.88;;;;;;;;;;4824787;29;20389;-75
2020/12/26 03:46:41;;;;;;;7.07;2.85;;;;;;;;;;4824925;29;20037;-76
2020/12/26 03:49:07;;;;;;;4.50;2.30;;;;;;;;;;4824893;29;20074;-75
2020/12/26 03:51:33;;;;;;;3.75;1.92;;;;;;;;;;4824270;29;20141;-81
2020/12/26 03:53:59;;;;;;;4.43;2.20;;;;;;;;;;4793124;29;20045;-69
2020/12/26 03:56:26;;;;;;;6.03;2.13;;;;;;;;;;4824619;29;20034;-75
2020/12/26 03:58:52;;;;;;;6.00;2.20;;;;;;;;;;4807964;29;20175;-75
2020/12/26 04:01:18;;;;;;;3.78;1.77;;;;;;;;;;4824290;29;20510;-71
2020/12/26 04:03:45;;;;;;;5.18;2.00;;;;;;;;;;4824614;29;20526;-71
2020/12/26 04:06:11;;;;;;;6.45;2.05;;;;;;;;;;4824451;29;20031;-80
2020/12/26 04:08:37;;;;;;;5.63;2.25;;;;;;;;;;4807941;29;20475;-69
2020/12/26 04:11:03;;;;;;;5.78;1.85;;;;;;;;;;4807610;29;20034;-74
2020/12/26 04:13:29;;;;;;;4.45;1.85;;;;;;;;;;4824259;29;20478;-71
2020/12/26 04:15:56;;;;;;;5.40;2.00;;;;;;;;;;4824294;29;20087;-72
2020/12/26 04:18:22;;;;;;;5.13;2.33;;;;;;;;;;4823220;29;20034;-75
2020/12/26 04:20:48;;;;;;;6.03;2.10;;;;;;;;;;4824216;29;20054;-73
2020/12/26 04:23:15;;;;;;;4.95;1.77;;;;;;;;;;4807647;29;20029;-70
2020/12/26 04:25:41;;;;;;;3.85;1.77;;;;;;;;;;4824207;29;20038;-75
2020/12/26 04:28:07;;;;;;;4.75;1.73;;;;;;;;;;4824140;29;20073;-71
2020/12/26 04:30:33;;;;;;;4.85;1.90;;;;;;;;;;4824389;29;20034;-78
2020/12/26 04:33:00;;;;;;;3.45;1.23;;;;;;;;;;4807313;29;20045;-72
2020/12/26 04:35:26;;;;;;;5.72;2.15;;;;;;;;;;4823978;29;20065;-69
2020/12/26 04:37:52;;;;;;;4.05;1.77;;;;;;;;;;4823999;29;20113;-70
2020/12/26 04:40:18;;;;;;;2.90;1.40;;;;;;;;;;4823974;29;20049;-74
2020/12/26 04:42:46;;;;;;;3.25;1.60;;;;;;;;;;4823923;29;20074;-74
2020/12/26 04:45:12;;;;;;;5.10;1.95;;;;;;;;;;4807516;29;20034;-76
2020/12/26 04:47:43;;;;;;;3.55;1.77;;;;;;;;;;4823800;29;20038;-73
2020/12/26 04:50:10;;;;;;;2.75;1.58;;;;;;;;;;4804378;29;20059;-74
2020/12/26 04:52:36;;;;;;;3.63;1.52;;;;;;;;;;4804315;29;20034;-77
2020/12/26 04:55:05;;;;;;;3.30;1.40;;;;;;;;;;4804462;29;20038;-75
2020/12/26 04:57:34;;;;;;;3.15;1.63;;;;;;;;;;4805664;29;20106;-77
2020/12/26 05:00:01;;;;;;;3.53;1.45;;;;;;;;;;4804243;29;20162;-77
2020/12/26 05:02:35;;;;;;;2.75;1.00;;;;;;;;;;4804404;29;20027;-70
2020/12/26 05:05:01;;;;;;;;;;;;;;;;;;4804688;29;20030;-78
2020/12/26 05:07:27;;;;;;;4.63;1.27;;;;;;;;;;4804422;29;20442;-71
2020/12/26 05:09:53;;;;;;;2.75;1.20;;;;;;;;;;4805579;29;20154;-80
2020/12/26 05:12:20;;;;;;;9.02;2.42;;;;;;;;;;4804230;29;20409;-76
2020/12/26 05:14:50;;;;;;;2.10;1.20;;;;;;;;;;4804240;29;20034;-79
2020/12/26 05:17:16;;;;;;;2.17;1.02;;;;;;;;;;4805578;29;20034;-74
2020/12/26 05:19:46;;;;;;;4.18;1.65;;;;;;;;;;4803954;29;20068;-76
2020/12/26 05:22:12;;;;;;;2.42;1.00;;;;;;;;;;4804320;29;20331;-79
2020/12/26 05:24:39;;;;;;;1.92;1.10;;;;;;;;;;4804232;29;20080;-73
2020/12/26 05:27:05;;;;;;;2.50;1.20;;;;;;;;;;4805454;29;20039;-80
2020/12/26 05:29:36;;;;;;;3.60;1.50;;;;;;;;;;4806403;29;20035;-79
2020/12/26 05:32:05;;;;;;;3.22;1.50;;;;;;;;;;4807545;29;20393;-76
2020/12/26 05:34:33;;;;;;;2.65;1.10;;;;;;;;;;4807120;29;20054;-77
2020/12/26 05:37:00;;;;;;;4.40;1.60;;;;;;;;;;4807359;29;20060;-75
2020/12/26 05:39:33;;;;;;;2.35;1.00;;;;;;;;;;4807298;29;20035;-70
2020/12/26 05:42:00;;;;;;;2.35;1.17;;;;;;;;;;4808903;29;20095;-77
2020/12/26 05:44:29;;;;;;;3.25;1.20;;;;;;;;;;4808416;29;20379;-71
2020/12/26 05:47:00;;;;;;;3.80;1.30;;;;;;;;;;4806955;29;20409;-75
2020/12/26 05:49:28;;;;;;;2.35;1.13;;;;;;;;;;4809359;29;20031;-78
2020/12/26 05:52:00;;;;;;;3.38;1.05;;;;;;;;;;4810096;29;20026;-77
2020/12/26 05:54:26;;;;;;;2.22;0.93;;;;;;;;;;4826345;29;20046;-76
2020/12/26 05:57:09;;;;;;;2.65;1.25;;;;;;;;;;4810050;29;20492;-76
2020/12/26 05:59:36;;;;;;;2.87;1.27;;;;;;;;;;4809617;29;20038;-71
2020/12/26 06:02:18;;;;;;;4.30;1.45;;;;;;;;;;4809839;29;20036;-67
2020/12/26 06:04:46;;;;;;;3.13;1.20;;;;;;;;;;4809855;29;20033;-71
2020/12/26 06:07:14;;;;;;;2.50;1.25;;;;;;;;;;4809938;29;20133;-71
2020/12/26 06:09:41;;;;;;;3.97;1.70;;;;;;;;;;4825624;29;20033;-70
2020/12/26 06:12:09;;;;;;;3.83;1.25;;;;;;;;;;4826342;29;20350;-73
2020/12/26 06:14:35;;;;;;;3.28;1.70;;;;;;;;;;4825863;29;20142;-70
2020/12/26 06:17:01;;;;;;;2.17;1.15;;;;;;;;;;4809850;29;20030;-74
2020/12/26 06:19:29;;;;;;;2.35;1.17;;;;;;;;;;4809649;29;20031;-69
2020/12/26 06:21:56;;;;;;;2.03;1.20;;;;;;;;;;4826161;29;20041;-72
2020/12/26 06:24:22;;;;;;;2.53;1.30;;;;;;;;;;4793617;29;20394;-78
2020/12/26 06:26:53;;;;;;;3.15;1.40;;;;;;;;;;4808643;29;20027;-76
2020/12/26 06:29:22;;;;;;;6.45;1.27;;;;;;;;;;4809583;29;20035;-70
2020/12/26 06:31:48;;;;;;;4.47;1.25;;;;;;;;;;4809392;29;20395;-78
2020/12/26 06:34:18;;;;;;;2.58;1.00;;;;;;;;;;4809306;29;20133;-75
2020/12/26 06:36:45;;;;;;;4.05;1.35;;;;;;;;;;4825920;29;20106;-78
2020/12/26 06:39:27;;;;;;;2.97;1.10;;;;;;;;;;4808996;29;20396;-76
2020/12/26 06:42:12;;;;;;;2.20;0.98;;;;;;;;;;4825083;29;20449;-74
2020/12/26 06:44:39;;;;;;;2.45;1.00;;;;;;;;;;4809381;29;20079;-78
2020/12/26 06:47:05;;;;;;;3.05;0.80;;;;;;;;;;4825617;29;20038;-80
2020/12/26 06:49:31;;;;;;;1.85;1.08;;;;;;;;;;4825244;29;20053;-78
2020/12/26 06:51:58;;;;;;;2.72;1.10;;;;;;;;;;4809112;29;20034;-75
2020/12/26 06:54:37;;;;;;;3.92;1.02;;;;;;;;;;4825357;29;20463;-76
2020/12/26 06:57:03;;;;;;;5.85;1.27;;;;;;;;;;4808912;29;20058;-73
2020/12/26 06:59:33;;;;;;;3.05;1.05;;;;;;;;;;4825348;29;20038;-72
2020/12/26 07:02:22;;;;;;;1.70;0.85;;;;;;;;;;4808647;29;20035;-72
2020/12/26 07:04:48;;;;;;;2.00;0.80;;;;;;;;;;4808422;29;20033;-72
2020/12/26 07:07:14;;;;;;;2.30;1.00;;;;;;;;;;4824995;29;20416;-70
2020/12/26 07:09:47;;;;;;;3.40;1.20;;;;;;;;;;4825245;29;20031;-73
2020/12/26 07:12:14;;;;;;;8.03;1.97;;;;;;;;;;4825023;29;20087;-74
2020/12/26 07:14:51;;;;;;;4.68;1.50;;;;;;;;;;4825037;29;20515;-73
2020/12/26 07:17:21;;;;;;;5.45;1.77;;;;;;;;;;4808545;29;20122;-75
2020/12/26 07:19:47;;;;;;;7.60;2.10;;;;;;;;;;4808491;29;20121;-74
2020/12/26 07:22:20;;;;;;;2.88;1.30;;;;;;;;;;4824923;29;20105;-74
2020/12/26 07:24:55;;;;;;;1.95;1.00;;;;;;;;;;4808412;29;20476;-76
2020/12/26 07:27:31;;;;;;;2.35;1.05;;;;;;;;;;4808243;29;20034;-78
2020/12/26 07:29:57;;;;;;;2.92;1.20;;;;;;;;;;4808493;29;20404;-75
2020/12/26 07:32:42;;;;;;;2.55;1.50;;;;;;;;;;4808402;29;20037;-78
2020/12/26 07:35:14;;;;;;;2.42;1.20;;;;;;;;;;4825515;29;20030;-73
2020/12/26 07:37:50;;;;;;;1.73;0.75;;;;;;;;;;4808701;29;20127;-77
2020/12/26 07:40:17;;;;;;;2.78;0.90;;;;;;;;;;4808634;29;20042;-74
2020/12/26 07:42:44;;;;;;;1.42;0.65;;;;;;;;;;4807919;29;20031;-74
2020/12/26 07:45:21;;;;;;;2.42;1.00;;;;;;;;;;4824478;29;20485;-73
2020/12/26 07:47:51;;;;;;;2.05;0.75;;;;;;;;;;4824808;29;20022;-77
2020/12/26 07:50:18;;;;;;;1.75;0.93;;;;;;;;;;4804679;29;20115;-73
2020/12/26 07:52:52;;;;;;;3.53;1.08;;;;;;;;;;4805758;29;20051;-78
2020/12/26 07:55:18;;;;;;;2.20;1.00;;;;;;;;;;4804965;29;20045;-74
2020/12/26 07:57:45;;;;;;;2.38;1.15;;;;;;;;;;4805000;29;20505;-77
2020/12/26 08:00:25;;;;;;;3.53;1.10;;;;;;;;;;4805040;29;20121;-73
2020/12/26 08:02:52;;;;;;;2.88;1.00;;;;;;;;;;4804918;29;20099;-73
2020/12/26 08:05:28;;;;;;;4.25;1.27;;;;;;;;;;4805813;29;20098;-76
2020/12/26 08:07:54;;;;;;;3.78;0.93;;;;;;;;;;4804654;29;20035;-74
2020/12/26 08:10:21;;;;;;;3.50;1.33;;;;;;;;;;4805866;29;20494;-72
2020/12/26 08:12:47;;;;;;;2.38;1.02;;;;;;;;;;4804639;29;20454;-73
2020/12/26 08:15:18;;;;;;;2.42;1.20;;;;;;;;;;4804253;29;20035;-72
2020/12/26 08:17:46;;;;;;;2.78;1.25;;;;;;;;;;4804709;29;20062;-74
2020/12/26 08:20:14;;;;;;;2.08;1.13;;;;;;;;;;4804645;29;20494;-74
2020/12/26 08:22:44;;;;;;;1.42;0.88;;;;;;;;;;4804488;29;20434;-77
2020/12/26 08:25:11;;;;;;;2.17;1.15;;;;;;;;;;4804576;29;20070;-75
2020/12/26 08:27:38;;;;;;;1.70;0.85;;;;;;;;;;4804054;29;20035;-70
2020/12/26 08:30:11;;;;;;;2.80;1.10;;;;;;;;;;4822210;29;20035;-72
2020/12/26 08:32:57;;;;;;;1.13;0.65;;;;;;;;;;4822576;29;20037;-74
2020/12/26 08:35:25;;;;;;;3.72;1.40;;;;;;;;;;4812726;29;20042;-72
2020/12/26 08:38:00;;;;;;;2.22;0.98;;;;;;;;;;4822246;29;20063;-73
2020/12/26 08:40:26;;;;;;;2.60;1.10;;;;;;;;;;4823709;29;20034;-72
2020/12/26 08:42:53;;;;;;;2.58;1.05;;;;;;;;;;4822022;29;20140;-76
2020/12/26 08:45:31;;;;;;;2.17;1.05;;;;;;;;;;4822399;29;20508;-72
2020/12/26 08:48:00;;;;;;;3.22;1.25;;;;;;;;;;4822750;29;20062;-71
2020/12/26 08:50:27;;;;;;;3.42;1.20;;;;;;;;;;4805407;29;20460;-72
2020/12/26 08:53:07;;;;;;;4.47;1.40;;;;;;;;;;4805625;29;20498;-76
2020/12/26 08:55:44;;;;;;;4.00;1.13;;;;;;;;;;4805349;29;20393;-73
2020/12/26 08:58:10;;;;;;;4.13;1.30;;;;;;;;;;4804066;29;20034;-71
2020/12/26 09:00:37;;;;;;;4.20;1.40;;;;;;;;;;4805547;29;20075;-72
2020/12/26 09:03:03;;;;;;;4.13;1.05;;;;;;;;;;4810234;29;20048;-75
2020/12/26 09:05:30;;;;;;;1.67;0.82;;;;;;;;;;4815690;29;20577;-75
2020/12/26 09:08:09;;;;;;;3.05;1.30;;;;;;;;;;4817005;29;20030;-71
2020/12/26 09:10:36;;;;;;;3.53;1.33;;;;;;;;;;4807478;29;20035;-76
2020/12/26 09:13:04;;;;;;;3.83;1.25;;;;;;;;;;4810927;29;20053;-76
2020/12/26 09:15:49;;;;;;;4.28;1.48;;;;;;;;;;4817753;29;20026;-74
2020/12/26 09:18:16;;;;;;;1.95;0.98;;;;;;;;;;4814754;29;20086;-75
2020/12/26 09:20:52;;;;;;;4.38;1.38;;;;;;;;;;4810658;29;20478;-76
2020/12/26 09:23:18;;;;;;;4.72;1.25;;;;;;;;;;4814349;29;20114;-70
2020/12/26 09:25:45;;;;;;;3.33;1.63;;;;;;;;;;4817398;29;20018;-72
2020/12/26 09:28:11;;;;;;;1.55;0.90;;;;;;;;;;4815911;29;20084;-71
2020/12/26 09:30:37;;;;;;;4.72;1.40;;;;;;;;;;4816005;29;20022;-70
2020/12/26 09:33:03;;;;;;;2.88;1.42;;;;;;;;;;4815927;29;20152;-71
2020/12/26 09:35:30;;;;;;;4.50;1.48;;;;;;;;;;4808301;29;20031;-76
2020/12/26 09:37:57;;;;;;;1.85;0.75;;;;;;;;;;4805685;29;20405;-70
2020/12/26 09:40:34;;;;;;;4.20;1.15;;;;;;;;;;4808296;29;20123;-72
2020/12/26 09:43:00;;;;;;;4.68;1.33;;;;;;;;;;4816006;29;20034;-70
2020/12/26 09:45:26;;;;;;;3.28;1.40;;;;;;;;;;4815036;29;20517;-71
2020/12/26 09:47:56;;;;;;;2.40;1.08;;;;;;;;;;4807334;29;20043;-71
2020/12/26 09:50:23;;;;;;;2.92;1.40;;;;;;;;;;4816120;29;20061;-71
2020/12/26 09:52:49;;;;;;;2.17;0.93;;;;;;;;;;4825886;29;20030;-71
2020/12/26 09:55:15;;;;;;;4.05;1.20;;;;;;;;;;4808500;29;20031;-70
2020/12/26 09:57:41;;;;;;;2.60;1.17;;;;;;;;;;4807790;29;20043;-71
2020/12/26 10:00:08;;;;;;;2.50;1.25;;;;;;;;;;4807969;29;20035;-71
2020/12/26 10:02:35;;;;;;;6.20;1.50;;;;;;;;;;4809366;29;20066;-71
2020/12/26 10:05:04;;;;;;;2.58;1.35;;;;;;;;;;4825391;29;20052;-73
2020/12/26 10:07:34;;;;;;;4.35;1.17;;;;;;;;;;4825635;29;20045;-74
2020/12/26 10:10:01;;;;;;;4.53;1.83;;;;;;;;;;4825507;29;20480;-73
2020/12/26 10:12:28;;;;;;;3.88;1.88;;;;;;;;;;4825284;29;20036;-74
2020/12/26 10:14:54;;;;;;;4.05;1.55;;;;;;;;;;4807591;29;20038;-74
2020/12/26 10:17:20;;;;;;;3.53;1.40;;;;;;;;;;4809391;29;20030;-73
2020/12/26 10:19:46;;;;;;;3.38;1.33;;;;;;;;;;4809006;29;20042;-73
2020/12/26 10:22:12;;;;;;;4.03;1.13;;;;;;;;;;4793856;29;20626;-75
2020/12/26 10:24:38;;;;;;;4.30;1.88;;;;;;;;;;4809216;29;20027;-83
2020/12/26 10:27:04;;;;;;;3.92;1.98;;;;;;;;;;4825252;29;20045;-83
2020/12/26 10:29:30;;;;;;;6.57;4.78;;;;;;;;;;4808304;29;20082;-75
2020/12/26 10:31:56;;;;;;;2.47;1.30;;;;;;;;;;4809010;29;20042;-75
2020/12/26 10:34:22;;;;;;;2.38;0.85;;;;;;;;;;4809085;29;20050;-75
2020/12/26 10:36:49;;;;;;;5.32;1.98;;;;;;;;;;4809073;29;20030;-79
2020/12/26 10:39:15;;;;;;;2.63;0.98;;;;;;;;;;4809130;29;20058;-75
2020/12/26 10:41:44;;;;;;;3.70;1.85;;;;;;;;;;4825498;29;20061;-74
2020/12/26 10:44:11;;;;;;;4.93;1.40;;;;;;;;;;4825592;29;20091;-76
2020/12/26 10:46:37;;;;;;;4.35;1.00;;;;;;;;;;4825726;29;20031;-76
2020/12/26 10:49:04;;;;;;;3.22;1.30;;;;;;;;;;4825467;29;20034;-76
2020/12/26 10:51:30;;;;;;;4.57;1.45;;;;;;;;;;4825319;29;20441;-73
2020/12/26 10:53:56;;;;;;;2.97;1.00;;;;;;;;;;4825300;29;20038;-74
2020/12/26 10:56:22;;;;;;;4.30;1.38;;;;;;;;;;4794048;29;20030;-88
2020/12/26 10:58:48;;;;;;;2.35;1.17;;;;;;;;;;4825036;29;20073;-74
2020/12/26 11:01:14;;;;;;;2.92;1.60;;;;;;;;;;4825791;29;20030;-86
2020/12/26 11:03:40;;;;;;;3.00;0.90;;;;;;;;;;4828209;29;20473;-75
2020/12/26 11:06:06;;;;;;;4.20;2.55;;;;;;;;;;4826085;29;20465;-86
2020/12/26 11:08:32;;;;;;;2.67;0.90;;;;;;;;;;4809375;29;20030;-74
2020/12/26 11:10:58;;;;;;;5.72;2.20;;;;;;;;;;4809686;29;20030;-89
2020/12/26 11:13:24;;;;;;;4.78;2.10;;;;;;;;;;4809356;29;20042;-89
2020/12/26 11:15:50;;;;;;;4.82;1.65;;;;;;;;;;4809245;29;20035;-89
2020/12/26 11:18:17;;;;;;;3.08;1.40;;;;;;;;;;4809049;29;20113;-77
2020/12/26 11:20:43;;;;;;;3.25;1.30;;;;;;;;;;4808629;29;20069;-75
2020/12/26 11:23:09;;;;;;;3.90;1.52;;;;;;;;;;4825168;29;20098;-73
2020/12/26 11:25:35;;;;;;;3.78;1.17;;;;;;;;;;4808540;29;20030;-84
2020/12/26 11:28:02;;;;;;;3.42;1.40;;;;;;;;;;4808560;29;20042;-74
2020/12/26 11:30:28;;;;;;;4.15;1.60;;;;;;;;;;4809282;29;20148;-74
2020/12/26 11:32:54;;;;;;;2.97;1.33;;;;;;;;;;4808215;29;20088;-76
2020/12/26 11:35:20;;;;;;;3.85;1.73;;;;;;;;;;4824705;29;20405;-89
2020/12/26 11:37:47;;;;;;;2.60;1.40;;;;;;;;;;4808769;29;20030;-83
2020/12/26 11:40:13;;;;;;;3.63;1.52;;;;;;;;;;4808336;29;20030;-74
2020/12/26 11:42:39;;;;;;;6.28;1.52;;;;;;;;;;4814557;29;20035;-74
2020/12/26 11:45:06;;;;;;;5.13;1.80;;;;;;;;;;4823379;29;20446;-74
2020/12/26 11:47:33;;;;;;;4.50;1.90;;;;;;;;;;4813086;29;20058;-76
2020/12/26 11:49:59;;;;;;;2.50;1.27;;;;;;;;;;4805416;29;20055;-90
2020/12/26 11:52:26;;;;;;;2.90;1.30;;;;;;;;;;4805539;29;20031;-77
2020/12/26 11:54:52;;;;;;;4.47;1.52;;;;;;;;;;4806047;29;20225;-77
2020/12/26 11:57:18;;;;;;;4.20;2.00;;;;;;;;;;4806856;29;20031;-75
2020/12/26 11:59:45;;;;;;;4.93;1.55;;;;;;;;;;4805502;29;20075;-89
2020/12/26 12:02:12;;;;;;;5.60;2.08;;;;;;;;;;4805255;29;20126;-89
2020/12/26 12:04:38;;;;;;;4.78;1.85;;;;;;;;;;4806341;29;20031;-74
2020/12/26 12:07:04;;;;;;;6.57;2.00;;;;;;;;;;4806406;29;20520;-90
2020/12/26 12:09:30;;;;;;;6.30;1.90;;;;;;;;;;4804837;29;20088;-73
2020/12/26 12:11:57;;;;;;;4.55;1.33;;;;;;;;;;4806012;29;20039;-72
2020/12/26 12:14:23;;;;;;;4.05;1.50;;;;;;;;;;4810970;29;20176;-75
2020/12/26 12:16:49;;;;;;;5.40;2.25;;;;;;;;;;4805823;29;20458;-72
2020/12/26 12:19:25;;;;;;;6.07;2.13;;;;;;;;;;4810829;29;20034;-70
2020/12/26 12:21:51;;;;;;;7.68;2.38;;;;;;;;;;4809791;29;20035;-77
2020/12/26 12:24:17;;;;;;;6.15;2.15;;;;;;;;;;4803208;29;20045;-71
2020/12/26 12:26:43;;;;;;;4.10;1.92;;;;;;;;;;4803250;29;20084;-76
2020/12/26 12:29:09;;;;;;;7.78;3.20;;;;;;;;;;4804250;29;20481;-71
2020/12/26 12:31:36;;;;;;;4.22;2.13;;;;;;;;;;4804572;29;20103;-75
2020/12/26 12:34:02;;;;;;;5.35;2.22;;;;;;;;;;4804421;29;20079;-77
2020/12/26 12:36:28;;;;;;;4.03;1.70;;;;;;;;;;4822818;29;20030;-69
2020/12/26 12:38:54;;;;;;;6.57;3.25;;;;;;;;;;4825393;29;20045;-70
2020/12/26 12:41:20;;;;;;;4.75;2.22;;;;;;;;;;4827228;29;20557;-80
2020/12/26 12:43:47;;;;;;;6.95;2.67;;;;;;;;;;4811080;29;20038;-77
2020/12/26 12:46:13;;;;;;;17.23;11.15;;;;;;;;;;4810973;29;20066;-69
2020/12/26 12:48:40;;;;;;;18.50;9.93;;;;;;;;;;4810626;29;20103;-72
2020/12/26 12:51:09;;;;;;;14.10;8.52;;;;;;;;;;4827236;29;20122;-69
2020/12/26 12:53:35;;;;;;;9.13;5.72;;;;;;;;;;4810759;29;20038;-69
2020/12/26 12:56:02;;;;;;;6.68;3.97;;;;;;;;;;4810851;29;20419;-76
2020/12/26 12:58:28;;;;;;;7.25;3.38;;;;;;;;;;4827202;29;20372;-71
2020/12/26 13:00:54;;;;;;;9.23;4.75;;;;;;;;;;4826827;29;20438;-72
2020/12/26 13:03:20;;;;;;;3.70;1.73;;;;;;;;;;4810896;29;20058;-70
2020/12/26 13:05:46;;;;;;;10.27;5.93;;;;;;;;;;4810715;29;20465;-69
2020/12/26 13:08:12;;;;;;;5.97;2.15;;;;;;;;;;4826973;29;20102;-74
2020/12/26 13:10:38;;;;;;;4.45;1.90;;;;;;;;;;4826638;29;20560;-81
2020/12/26 13:13:04;;;;;;;4.50;2.00;;;;;;;;;;4826844;29;20022;-82
2020/12/26 13:15:30;;;;;;;3.05;1.40;;;;;;;;;;4810507;29;20079;-76
2020/12/26 13:17:56;;;;;;;3.67;1.58;;;;;;;;;;4810112;29;20030;-78
2020/12/26 13:20:22;;;;;;;4.43;1.90;;;;;;;;;;4810391;29;20027;-70
2020/12/26 13:22:51;;;;;;;3.20;1.58;;;;;;;;;;4809765;29;20035;-72
2020/12/26 13:25:18;;;;;;;2.60;1.27;;;;;;;;;;4810423;29;20034;-72
2020/12/26 13:27:44;;;;;;;3.78;1.52;;;;;;;;;;4826685;29;20145;-71
2020/12/26 13:30:10;;;;;;;2.25;1.38;;;;;;;;;;4811513;29;20045;-85
2020/12/26 13:32:36;;;;;;;3.13;1.30;;;;;;;;;;4810662;29;20030;-86
2020/12/26 13:35:02;;;;;;;2.10;1.05;;;;;;;;;;4810562;29;20134;-74
2020/12/26 13:37:28;;;;;;;4.88;1.75;;;;;;;;;;4810610;29;20037;-87
2020/12/26 13:39:54;;;;;;;5.20;2.22;;;;;;;;;;4810620;29;20027;-77
2020/12/26 13:42:20;;;;;;;3.20;1.40;;;;;;;;;;4826994;29;20033;-92
2020/12/26 13:44:46;;;;;;;6.85;1.40;;;;;;;;;;4810754;29;20374;-73
2020/12/26 13:47:12;;;;;;;3.92;1.60;;;;;;;;;;4811546;29;20034;-90
2020/12/26 13:49:38;;;;;;;2.85;1.20;;;;;;;;;;4811546;29;20048;-82
2020/12/26 13:52:04;;;;;;;1.95;1.10;;;;;;;;;;4811247;29;20061;-90
2020/12/26 13:54:30;;;;;;;6.95;2.47;;;;;;;;;;4827131;29;20446;-73
2020/12/26 13:56:57;;;;;;;6.95;2.00;;;;;;;;;;4826976;29;20058;-78
2020/12/26 13:59:23;;;;;;;3.53;1.60;;;;;;;;;;4826823;29;20101;-82
2020/12/26 14:01:49;;;;;;;5.55;2.47;;;;;;;;;;4825584;29;20030;-72
2020/12/26 14:04:15;;;;;;;5.85;2.00;;;;;;;;;;4809584;29;20497;-71
2020/12/26 14:06:41;;;;;;;5.05;2.35;;;;;;;;;;4809173;29;20511;-70
2020/12/26 14:09:08;;;;;;;6.70;2.05;;;;;;;;;;4809355;29;20030;-77
2020/12/26 14:11:34;;;;;;;3.83;2.05;;;;;;;;;;4824970;29;20034;-75
2020/12/26 14:14:00;;;;;;;6.60;2.33;;;;;;;;;;4824726;29;20042;-76
2020/12/26 14:16:27;;;;;;;4.85;1.98;;;;;;;;;;4824846;29;20038;-73
2020/12/26 14:18:53;;;;;;;4.10;1.65;;;;;;;;;;4808748;29;20404;-70
2020/12/26 14:21:22;;;;;;;4.13;2.17;;;;;;;;;;4825470;29;20038;-85
2020/12/26 14:23:48;;;;;;;3.22;1.63;;;;;;;;;;4825086;29;20027;-70
2020/12/26 14:26:14;;;;;;;3.15;1.50;;;;;;;;;;4825390;29;20046;-70
2020/12/26 14:28:41;;;;;;;7.43;1.80;;;;;;;;;;4809085;29;20121;-71
2020/12/26 14:31:11;;;;;;;2.95;1.45;;;;;;;;;;4809367;29;20064;-70
2020/12/26 14:33:37;;;;;;;3.13;1.60;;;;;;;;;;4809338;29;20039;-72
2020/12/26 14:36:03;;;;;;;2.70;1.20;;;;;;;;;;4825452;29;20541;-72
2020/12/26 14:38:29;;;;;;;4.32;1.95;;;;;;;;;;4809317;29;20087;-70
2020/12/26 14:40:55;;;;;;;9.07;2.35;;;;;;;;;;4809367;29;20041;-72
2020/12/26 14:43:21;;;;;;;5.57;1.80;;;;;;;;;;4825596;29;20030;-70
2020/12/26 14:45:48;;;;;;;4.43;2.00;;;;;;;;;;4824922;29;20030;-77